sensor_id;sensor_type;location;lat;lon;timestamp;P1;durP1;ratioP1;P2;durP2;ratioP2
55423;SDS011;41294;42.666;23.350;2023-03-05T00:01:19;25.27;;;14.50;;
55423;SDS011;41294;42.666;23.350;2023-03-05T00:03:49;22.20;;;13.60;;
55423;SDS011;41294;42.666;23.350;2023-03-05T00:06:16;22.60;;;14.37;;
55423;SDS011;41294;42.666;23.350;2023-03-05T00:08:42;26.63;;;14.97;;
55423;SDS011;41294;42.666;23.350;2023-03-05T00:11:08;25.33;;;14.53;;
55423;SDS011;41294;42.666;23.350;2023-03-05T00:13:35;26.20;;;13.97;;
55423;SDS011;41294;42.666;23.350;2023-03-05T00:16:01;27.93;;;14.13;;
55423;SDS011;41294;42.666;23.350;2023-03-05T00:18:28;22.90;;;13.93;;
55423;SDS011;41294;42.666;23.350;2023-03-05T00:20:54;23.50;;;14.47;;
55423;SDS011;41294;42.666;23.350;2023-03-05T00:23:19;25.40;;;13.80;;
55423;SDS011;41294;42.666;23.350;2023-03-05T00:25:45;24.83;;;14.77;;
55423;SDS011;41294;42.666;23.350;2023-03-05T00:28:10;23.30;;;13.90;;
55423;SDS011;41294;42.666;23.350;2023-03-05T00:30:36;25.60;;;15.07;;
55423;SDS011;41294;42.666;23.350;2023-03-05T00:33:01;22.60;;;14.30;;
55423;SDS011;41294;42.666;23.350;2023-03-05T00:35:26;26.43;;;14.37;;
55423;SDS011;41294;42.666;23.350;2023-03-05T00:37:52;24.67;;;13.90;;
55423;SDS011;41294;42.666;23.350;2023-03-05T00:40:18;23.23;;;13.40;;
55423;SDS011;41294;42.666;23.350;2023-03-05T00:42:43;22.40;;;13.73;;
55423;SDS011;41294;42.666;23.350;2023-03-05T00:45:09;22.17;;;13.90;;
55423;SDS011;41294;42.666;23.350;2023-03-05T00:47:35;22.47;;;13.57;;
55423;SDS011;41294;42.666;23.350;2023-03-05T00:50:01;20.03;;;12.20;;
55423;SDS011;41294;42.666;23.350;2023-03-05T00:52:28;21.73;;;12.47;;
55423;SDS011;41294;42.666;23.350;2023-03-05T00:54:54;24.40;;;13.07;;
55423;SDS011;41294;42.666;23.350;2023-03-05T00:57:19;19.03;;;12.77;;
55423;SDS011;41294;42.666;23.350;2023-03-05T00:59:45;19.87;;;12.57;;
55423;SDS011;41294;42.666;23.350;2023-03-05T01:02:10;23.30;;;13.43;;
55423;SDS011;41294;42.666;23.350;2023-03-05T01:04:35;20.47;;;13.20;;
55423;SDS011;41294;42.666;23.350;2023-03-05T01:07:02;21.37;;;12.53;;
55423;SDS011;41294;42.666;23.350;2023-03-05T01:09:27;21.53;;;12.40;;
55423;SDS011;41294;42.666;23.350;2023-03-05T01:11:53;22.77;;;12.90;;
55423;SDS011;41294;42.666;23.350;2023-03-05T01:14:19;20.47;;;13.27;;
55423;SDS011;41294;42.666;23.350;2023-03-05T01:16:45;19.90;;;12.20;;
55423;SDS011;41294;42.666;23.350;2023-03-05T01:19:10;24.90;;;13.70;;
55423;SDS011;41294;42.666;23.350;2023-03-05T01:21:37;20.47;;;13.63;;
55423;SDS011;41294;42.666;23.350;2023-03-05T01:24:02;21.67;;;12.23;;
55423;SDS011;41294;42.666;23.350;2023-03-05T01:26:28;21.03;;;12.40;;
55423;SDS011;41294;42.666;23.350;2023-03-05T01:28:54;22.70;;;12.90;;
55423;SDS011;41294;42.666;23.350;2023-03-05T01:31:19;23.80;;;12.60;;
55423;SDS011;41294;42.666;23.350;2023-03-05T01:33:45;21.40;;;12.60;;
55423;SDS011;41294;42.666;23.350;2023-03-05T01:36:11;21.27;;;12.73;;
55423;SDS011;41294;42.666;23.350;2023-03-05T01:38:41;20.30;;;11.40;;
55423;SDS011;41294;42.666;23.350;2023-03-05T01:41:10;21.00;;;11.63;;
55423;SDS011;41294;42.666;23.350;2023-03-05T01:43:36;19.03;;;11.93;;
55423;SDS011;41294;42.666;23.350;2023-03-05T01:48:55;19.53;;;12.93;;
55423;SDS011;41294;42.666;23.350;2023-03-05T01:51:23;20.83;;;12.43;;
55423;SDS011;41294;42.666;23.350;2023-03-05T01:53:51;23.60;;;12.93;;
55423;SDS011;41294;42.666;23.350;2023-03-05T01:56:19;19.40;;;11.83;;
55423;SDS011;41294;42.666;23.350;2023-03-05T01:58:45;21.83;;;11.97;;
55423;SDS011;41294;42.666;23.350;2023-03-05T02:01:11;20.27;;;11.47;;
55423;SDS011;41294;42.666;23.350;2023-03-05T02:03:36;20.20;;;12.20;;
55423;SDS011;41294;42.666;23.350;2023-03-05T02:06:02;18.87;;;12.30;;
55423;SDS011;41294;42.666;23.350;2023-03-05T02:08:28;19.17;;;11.73;;
55423;SDS011;41294;42.666;23.350;2023-03-05T02:10:54;18.30;;;11.53;;
55423;SDS011;41294;42.666;23.350;2023-03-05T02:13:22;20.83;;;11.80;;
55423;SDS011;41294;42.666;23.350;2023-03-05T02:15:49;18.70;;;11.83;;
55423;SDS011;41294;42.666;23.350;2023-03-05T02:18:16;20.37;;;11.80;;
55423;SDS011;41294;42.666;23.350;2023-03-05T02:20:45;18.57;;;11.53;;
55423;SDS011;41294;42.666;23.350;2023-03-05T02:23:10;20.60;;;11.00;;
55423;SDS011;41294;42.666;23.350;2023-03-05T02:25:36;20.07;;;10.90;;
55423;SDS011;41294;42.666;23.350;2023-03-05T02:28:05;19.63;;;11.90;;
55423;SDS011;41294;42.666;23.350;2023-03-05T02:30:36;16.60;;;10.83;;
55423;SDS011;41294;42.666;23.350;2023-03-05T02:33:02;17.80;;;11.23;;
55423;SDS011;41294;42.666;23.350;2023-03-05T02:35:28;21.97;;;11.23;;
55423;SDS011;41294;42.666;23.350;2023-03-05T02:37:56;22.20;;;11.73;;
55423;SDS011;41294;42.666;23.350;2023-03-05T02:40:21;20.03;;;12.00;;
55423;SDS011;41294;42.666;23.350;2023-03-05T02:42:47;18.97;;;11.67;;
55423;SDS011;41294;42.666;23.350;2023-03-05T02:45:13;21.77;;;11.73;;
55423;SDS011;41294;42.666;23.350;2023-03-05T02:47:39;19.57;;;11.23;;
55423;SDS011;41294;42.666;23.350;2023-03-05T02:50:04;22.70;;;12.80;;
55423;SDS011;41294;42.666;23.350;2023-03-05T02:52:31;21.13;;;12.20;;
55423;SDS011;41294;42.666;23.350;2023-03-05T02:54:56;19.20;;;11.93;;
55423;SDS011;41294;42.666;23.350;2023-03-05T02:57:22;23.43;;;12.90;;
55423;SDS011;41294;42.666;23.350;2023-03-05T02:59:47;22.30;;;13.70;;
55423;SDS011;41294;42.666;23.350;2023-03-05T03:02:12;25.07;;;12.60;;
55423;SDS011;41294;42.666;23.350;2023-03-05T03:04:38;22.00;;;13.10;;
55423;SDS011;41294;42.666;23.350;2023-03-05T03:07:03;22.30;;;13.07;;
55423;SDS011;41294;42.666;23.350;2023-03-05T03:09:29;23.67;;;13.27;;
55423;SDS011;41294;42.666;23.350;2023-03-05T03:11:55;24.07;;;14.37;;
55423;SDS011;41294;42.666;23.350;2023-03-05T03:14:20;22.33;;;13.37;;
55423;SDS011;41294;42.666;23.350;2023-03-05T03:16:46;20.43;;;13.27;;
55423;SDS011;41294;42.666;23.350;2023-03-05T03:19:11;23.40;;;13.77;;
55423;SDS011;41294;42.666;23.350;2023-03-05T03:21:37;24.07;;;14.50;;
55423;SDS011;41294;42.666;23.350;2023-03-05T03:24:03;22.53;;;13.97;;
55423;SDS011;41294;42.666;23.350;2023-03-05T03:26:28;25.80;;;14.53;;
55423;SDS011;41294;42.666;23.350;2023-03-05T03:28:55;22.57;;;13.37;;
55423;SDS011;41294;42.666;23.350;2023-03-05T03:31:21;25.83;;;13.30;;
55423;SDS011;41294;42.666;23.350;2023-03-05T03:33:47;25.53;;;14.23;;
55423;SDS011;41294;42.666;23.350;2023-03-05T03:36:13;25.93;;;14.30;;
55423;SDS011;41294;42.666;23.350;2023-03-05T03:38:38;23.77;;;13.73;;
55423;SDS011;41294;42.666;23.350;2023-03-05T03:41:04;24.97;;;14.30;;
55423;SDS011;41294;42.666;23.350;2023-03-05T03:43:31;25.33;;;13.63;;
55423;SDS011;41294;42.666;23.350;2023-03-05T03:45:57;26.30;;;14.17;;
55423;SDS011;41294;42.666;23.350;2023-03-05T03:48:22;22.73;;;13.77;;
55423;SDS011;41294;42.666;23.350;2023-03-05T03:50:48;22.80;;;14.37;;
55423;SDS011;41294;42.666;23.350;2023-03-05T03:53:13;23.27;;;14.90;;
55423;SDS011;41294;42.666;23.350;2023-03-05T03:55:40;25.90;;;14.53;;
55423;SDS011;41294;42.666;23.350;2023-03-05T03:58:10;23.60;;;14.90;;
55423;SDS011;41294;42.666;23.350;2023-03-05T04:00:36;22.13;;;14.17;;
55423;SDS011;41294;42.666;23.350;2023-03-05T04:03:01;28.40;;;13.77;;
55423;SDS011;41294;42.666;23.350;2023-03-05T04:05:26;27.57;;;14.53;;
55423;SDS011;41294;42.666;23.350;2023-03-05T04:07:52;22.00;;;13.53;;
55423;SDS011;41294;42.666;23.350;2023-03-05T04:10:17;26.63;;;15.63;;
55423;SDS011;41294;42.666;23.350;2023-03-05T04:12:43;25.93;;;14.57;;
55423;SDS011;41294;42.666;23.350;2023-03-05T04:15:10;25.73;;;14.07;;
55423;SDS011;41294;42.666;23.350;2023-03-05T04:17:36;25.27;;;15.67;;
55423;SDS011;41294;42.666;23.350;2023-03-05T04:20:02;24.50;;;14.97;;
55423;SDS011;41294;42.666;23.350;2023-03-05T04:22:29;31.97;;;15.83;;
55423;SDS011;41294;42.666;23.350;2023-03-05T04:24:55;29.17;;;14.90;;
55423;SDS011;41294;42.666;23.350;2023-03-05T04:27:20;25.27;;;14.53;;
55423;SDS011;41294;42.666;23.350;2023-03-05T04:29:46;22.50;;;13.90;;
55423;SDS011;41294;42.666;23.350;2023-03-05T04:32:11;21.97;;;14.20;;
55423;SDS011;41294;42.666;23.350;2023-03-05T04:34:36;23.03;;;14.13;;
55423;SDS011;41294;42.666;23.350;2023-03-05T04:37:02;24.00;;;13.90;;
55423;SDS011;41294;42.666;23.350;2023-03-05T04:39:28;27.73;;;14.20;;
55423;SDS011;41294;42.666;23.350;2023-03-05T04:41:53;22.93;;;14.27;;
55423;SDS011;41294;42.666;23.350;2023-03-05T04:44:19;20.87;;;13.93;;
55423;SDS011;41294;42.666;23.350;2023-03-05T04:46:47;22.70;;;13.33;;
55423;SDS011;41294;42.666;23.350;2023-03-05T04:49:13;24.53;;;14.20;;
55423;SDS011;41294;42.666;23.350;2023-03-05T04:51:39;25.03;;;13.80;;
55423;SDS011;41294;42.666;23.350;2023-03-05T04:54:05;23.57;;;12.87;;
55423;SDS011;41294;42.666;23.350;2023-03-05T04:56:30;24.53;;;13.30;;
55423;SDS011;41294;42.666;23.350;2023-03-05T04:58:56;25.20;;;13.20;;
55423;SDS011;41294;42.666;23.350;2023-03-05T05:01:21;25.47;;;14.50;;
55423;SDS011;41294;42.666;23.350;2023-03-05T05:03:46;23.30;;;14.07;;
55423;SDS011;41294;42.666;23.350;2023-03-05T05:06:12;23.60;;;13.40;;
55423;SDS011;41294;42.666;23.350;2023-03-05T05:08:37;26.63;;;13.83;;
55423;SDS011;41294;42.666;23.350;2023-03-05T05:11:03;28.30;;;14.30;;
55423;SDS011;41294;42.666;23.350;2023-03-05T05:13:31;24.10;;;13.30;;
55423;SDS011;41294;42.666;23.350;2023-03-05T05:15:57;27.63;;;14.60;;
55423;SDS011;41294;42.666;23.350;2023-03-05T05:18:23;26.63;;;13.57;;
55423;SDS011;41294;42.666;23.350;2023-03-05T05:20:49;23.90;;;13.40;;
55423;SDS011;41294;42.666;23.350;2023-03-05T05:23:15;24.87;;;13.57;;
55423;SDS011;41294;42.666;23.350;2023-03-05T05:25:41;25.27;;;12.87;;
55423;SDS011;41294;42.666;23.350;2023-03-05T05:28:07;22.60;;;13.10;;
55423;SDS011;41294;42.666;23.350;2023-03-05T05:30:34;25.20;;;12.57;;
55423;SDS011;41294;42.666;23.350;2023-03-05T05:32:59;20.33;;;11.93;;
55423;SDS011;41294;42.666;23.350;2023-03-05T05:35:25;19.80;;;12.20;;
55423;SDS011;41294;42.666;23.350;2023-03-05T05:37:50;27.87;;;12.97;;
55423;SDS011;41294;42.666;23.350;2023-03-05T05:40:15;20.40;;;11.73;;
55423;SDS011;41294;42.666;23.350;2023-03-05T05:42:41;28.83;;;12.97;;
55423;SDS011;41294;42.666;23.350;2023-03-05T05:45:06;19.07;;;11.23;;
55423;SDS011;41294;42.666;23.350;2023-03-05T05:47:32;27.67;;;13.63;;
55423;SDS011;41294;42.666;23.350;2023-03-05T05:49:58;21.53;;;11.70;;
55423;SDS011;41294;42.666;23.350;2023-03-05T05:52:23;22.47;;;11.40;;
55423;SDS011;41294;42.666;23.350;2023-03-05T05:54:48;21.53;;;11.90;;
55423;SDS011;41294;42.666;23.350;2023-03-05T05:57:14;21.60;;;11.50;;
55423;SDS011;41294;42.666;23.350;2023-03-05T05:59:40;21.40;;;11.67;;
55423;SDS011;41294;42.666;23.350;2023-03-05T06:02:05;19.80;;;11.00;;
55423;SDS011;41294;42.666;23.350;2023-03-05T06:04:32;21.00;;;11.90;;
55423;SDS011;41294;42.666;23.350;2023-03-05T06:06:58;21.77;;;12.00;;
55423;SDS011;41294;42.666;23.350;2023-03-05T06:09:24;21.17;;;11.17;;
55423;SDS011;41294;42.666;23.350;2023-03-05T06:11:49;20.63;;;10.80;;
55423;SDS011;41294;42.666;23.350;2023-03-05T06:14:15;19.83;;;11.23;;
55423;SDS011;41294;42.666;23.350;2023-03-05T06:16:40;20.53;;;10.87;;
55423;SDS011;41294;42.666;23.350;2023-03-05T06:19:07;20.67;;;11.20;;
55423;SDS011;41294;42.666;23.350;2023-03-05T06:21:33;20.40;;;10.43;;
55423;SDS011;41294;42.666;23.350;2023-03-05T06:23:58;21.17;;;10.10;;
55423;SDS011;41294;42.666;23.350;2023-03-05T06:26:25;14.70;;;9.90;;
55423;SDS011;41294;42.666;23.350;2023-03-05T06:28:51;19.83;;;10.90;;
55423;SDS011;41294;42.666;23.350;2023-03-05T06:31:17;17.63;;;10.37;;
55423;SDS011;41294;42.666;23.350;2023-03-05T06:33:46;18.27;;;10.80;;
55423;SDS011;41294;42.666;23.350;2023-03-05T06:36:13;15.10;;;9.53;;
55423;SDS011;41294;42.666;23.350;2023-03-05T06:38:40;20.70;;;10.20;;
55423;SDS011;41294;42.666;23.350;2023-03-05T06:41:06;17.43;;;9.80;;
55423;SDS011;41294;42.666;23.350;2023-03-05T06:43:36;19.40;;;10.70;;
55423;SDS011;41294;42.666;23.350;2023-03-05T06:46:11;18.17;;;10.50;;
55423;SDS011;41294;42.666;23.350;2023-03-05T06:48:44;17.80;;;10.13;;
55423;SDS011;41294;42.666;23.350;2023-03-05T06:51:21;19.37;;;11.07;;
55423;SDS011;41294;42.666;23.350;2023-03-05T06:53:54;17.60;;;10.73;;
55423;SDS011;41294;42.666;23.350;2023-03-05T06:56:23;15.00;;;9.90;;
55423;SDS011;41294;42.666;23.350;2023-03-05T06:58:49;17.40;;;10.40;;
55423;SDS011;41294;42.666;23.350;2023-03-05T07:01:16;20.47;;;10.77;;
55423;SDS011;41294;42.666;23.350;2023-03-05T07:03:42;22.17;;;11.03;;
55423;SDS011;41294;42.666;23.350;2023-03-05T07:06:09;15.87;;;10.37;;
55423;SDS011;41294;42.666;23.350;2023-03-05T07:08:37;18.47;;;10.37;;
55423;SDS011;41294;42.666;23.350;2023-03-05T07:11:03;19.77;;;11.03;;
55423;SDS011;41294;42.666;23.350;2023-03-05T07:13:33;19.13;;;11.00;;
55423;SDS011;41294;42.666;23.350;2023-03-05T07:15:58;18.87;;;10.57;;
55423;SDS011;41294;42.666;23.350;2023-03-05T07:18:23;20.20;;;11.47;;
55423;SDS011;41294;42.666;23.350;2023-03-05T07:20:49;18.93;;;10.73;;
55423;SDS011;41294;42.666;23.350;2023-03-05T07:23:14;17.83;;;11.37;;
55423;SDS011;41294;42.666;23.350;2023-03-05T07:25:39;18.70;;;10.87;;
55423;SDS011;41294;42.666;23.350;2023-03-05T07:28:05;33.07;;;12.00;;
55423;SDS011;41294;42.666;23.350;2023-03-05T07:30:31;21.77;;;11.47;;
55423;SDS011;41294;42.666;23.350;2023-03-05T07:32:57;19.80;;;11.73;;
55423;SDS011;41294;42.666;23.350;2023-03-05T07:35:22;15.73;;;11.10;;
55423;SDS011;41294;42.666;23.350;2023-03-05T07:37:50;18.40;;;12.20;;
55423;SDS011;41294;42.666;23.350;2023-03-05T07:40:16;19.23;;;11.90;;
55423;SDS011;41294;42.666;23.350;2023-03-05T07:42:42;22.47;;;12.07;;
55423;SDS011;41294;42.666;23.350;2023-03-05T07:45:09;19.87;;;11.93;;
55423;SDS011;41294;42.666;23.350;2023-03-05T07:47:35;20.40;;;11.93;;
55423;SDS011;41294;42.666;23.350;2023-03-05T07:50:00;19.90;;;11.87;;
55423;SDS011;41294;42.666;23.350;2023-03-05T07:52:27;18.27;;;11.57;;
55423;SDS011;41294;42.666;23.350;2023-03-05T07:54:52;21.77;;;12.30;;
55423;SDS011;41294;42.666;23.350;2023-03-05T07:57:17;20.20;;;13.07;;
55423;SDS011;41294;42.666;23.350;2023-03-05T07:59:43;20.87;;;13.27;;
55423;SDS011;41294;42.666;23.350;2023-03-05T08:02:09;20.67;;;13.73;;
55423;SDS011;41294;42.666;23.350;2023-03-05T08:04:37;22.57;;;14.07;;
55423;SDS011;41294;42.666;23.350;2023-03-05T08:07:02;22.73;;;13.57;;
55423;SDS011;41294;42.666;23.350;2023-03-05T08:09:29;21.87;;;13.40;;
55423;SDS011;41294;42.666;23.350;2023-03-05T08:11:55;21.13;;;14.23;;
55423;SDS011;41294;42.666;23.350;2023-03-05T08:14:20;22.63;;;14.23;;
55423;SDS011;41294;42.666;23.350;2023-03-05T08:16:46;27.47;;;14.17;;
55423;SDS011;41294;42.666;23.350;2023-03-05T08:19:16;25.37;;;14.57;;
55423;SDS011;41294;42.666;23.350;2023-03-05T08:21:43;22.03;;;13.87;;
55423;SDS011;41294;42.666;23.350;2023-03-05T08:24:09;23.27;;;14.50;;
55423;SDS011;41294;42.666;23.350;2023-03-05T08:26:36;28.70;;;15.07;;
55423;SDS011;41294;42.666;23.350;2023-03-05T08:29:03;25.33;;;13.47;;
55423;SDS011;41294;42.666;23.350;2023-03-05T08:31:30;25.57;;;14.07;;
55423;SDS011;41294;42.666;23.350;2023-03-05T08:33:57;29.07;;;14.43;;
55423;SDS011;41294;42.666;23.350;2023-03-05T08:36:24;22.50;;;13.53;;
55423;SDS011;41294;42.666;23.350;2023-03-05T08:38:50;27.07;;;15.37;;
55423;SDS011;41294;42.666;23.350;2023-03-05T08:41:17;24.77;;;14.03;;
55423;SDS011;41294;42.666;23.350;2023-03-05T08:43:42;27.73;;;14.13;;
55423;SDS011;41294;42.666;23.350;2023-03-05T08:46:09;25.20;;;14.50;;
55423;SDS011;41294;42.666;23.350;2023-03-05T08:48:39;25.77;;;14.63;;
55423;SDS011;41294;42.666;23.350;2023-03-05T08:51:06;23.77;;;14.53;;
55423;SDS011;41294;42.666;23.350;2023-03-05T08:53:33;25.23;;;13.50;;
55423;SDS011;41294;42.666;23.350;2023-03-05T08:55:59;23.57;;;13.63;;
55423;SDS011;41294;42.666;23.350;2023-03-05T08:58:25;24.47;;;14.47;;
55423;SDS011;41294;42.666;23.350;2023-03-05T09:00:50;25.60;;;14.57;;
55423;SDS011;41294;42.666;23.350;2023-03-05T09:03:16;25.27;;;14.43;;
55423;SDS011;41294;42.666;23.350;2023-03-05T09:05:41;23.07;;;13.90;;
55423;SDS011;41294;42.666;23.350;2023-03-05T09:08:07;23.13;;;14.20;;
55423;SDS011;41294;42.666;23.350;2023-03-05T09:10:32;25.33;;;14.10;;
55423;SDS011;41294;42.666;23.350;2023-03-05T09:12:58;20.80;;;13.30;;
55423;SDS011;41294;42.666;23.350;2023-03-05T09:15:23;23.13;;;13.17;;
55423;SDS011;41294;42.666;23.350;2023-03-05T09:17:48;23.03;;;13.77;;
55423;SDS011;41294;42.666;23.350;2023-03-05T09:20:14;25.57;;;13.27;;
55423;SDS011;41294;42.666;23.350;2023-03-05T09:22:39;22.63;;;12.30;;
55423;SDS011;41294;42.666;23.350;2023-03-05T09:25:06;22.30;;;13.97;;
55423;SDS011;41294;42.666;23.350;2023-03-05T09:27:33;23.73;;;13.63;;
55423;SDS011;41294;42.666;23.350;2023-03-05T09:29:59;22.30;;;13.07;;
55423;SDS011;41294;42.666;23.350;2023-03-05T09:32:27;19.50;;;12.37;;
55423;SDS011;41294;42.666;23.350;2023-03-05T09:34:53;19.93;;;12.73;;
55423;SDS011;41294;42.666;23.350;2023-03-05T09:37:18;20.97;;;13.27;;
55423;SDS011;41294;42.666;23.350;2023-03-05T09:39:44;16.57;;;11.30;;
55423;SDS011;41294;42.666;23.350;2023-03-05T09:47:57;27.20;;;12.37;;
55423;SDS011;41294;42.666;23.350;2023-03-05T09:50:47;18.93;;;11.30;;
55423;SDS011;41294;42.666;23.350;2023-03-05T09:53:19;20.93;;;12.30;;
55423;SDS011;41294;42.666;23.350;2023-03-05T09:55:46;21.10;;;12.13;;
55423;SDS011;41294;42.666;23.350;2023-03-05T10:00:58;21.40;;;12.53;;
55423;SDS011;41294;42.666;23.350;2023-03-05T10:08:57;17.83;;;11.77;;
55423;SDS011;41294;42.666;23.350;2023-03-05T10:14:19;17.70;;;10.67;;
55423;SDS011;41294;42.666;23.350;2023-03-05T10:38:18;17.97;;;12.07;;
55423;SDS011;41294;42.666;23.350;2023-03-05T10:40:47;15.03;;;11.10;;
55423;SDS011;41294;42.666;23.350;2023-03-05T10:45:53;16.53;;;10.40;;
55423;SDS011;41294;42.666;23.350;2023-03-05T10:50:49;17.67;;;10.23;;
55423;SDS011;41294;42.666;23.350;2023-03-05T10:53:28;12.83;;;8.83;;
55423;SDS011;41294;42.666;23.350;2023-03-05T10:56:03;14.00;;;9.93;;
55423;SDS011;41294;42.666;23.350;2023-03-05T10:58:30;13.43;;;9.00;;
55423;SDS011;41294;42.666;23.350;2023-03-05T11:06:26;14.10;;;9.10;;
55423;SDS011;41294;42.666;23.350;2023-03-05T11:10:00;16.83;;;10.03;;
55423;SDS011;41294;42.666;23.350;2023-03-05T11:12:00;15.83;;;9.60;;
55423;SDS011;41294;42.666;23.350;2023-03-05T11:15:00;12.63;;;9.13;;
55423;SDS011;41294;42.666;23.350;2023-03-05T11:18:10;14.30;;;9.87;;
55423;SDS011;41294;42.666;23.350;2023-03-05T11:20:42;12.90;;;9.23;;
55423;SDS011;41294;42.666;23.350;2023-03-05T11:39:22;13.40;;;9.27;;
55423;SDS011;41294;42.666;23.350;2023-03-05T11:41:50;12.00;;;8.57;;
55423;SDS011;41294;42.666;23.350;2023-03-05T11:44:29;13.17;;;9.00;;
55423;SDS011;41294;42.666;23.350;2023-03-05T11:52:50;15.13;;;10.13;;
55423;SDS011;41294;42.666;23.350;2023-03-05T11:55:35;19.60;;;10.30;;
55423;SDS011;41294;42.666;23.350;2023-03-05T12:00:56;15.10;;;9.17;;
55423;SDS011;41294;42.666;23.350;2023-03-05T12:03:30;12.60;;;8.73;;
55423;SDS011;41294;42.666;23.350;2023-03-05T12:06:09;13.63;;;8.87;;
55423;SDS011;41294;42.666;23.350;2023-03-05T12:08:43;14.07;;;9.57;;
55423;SDS011;41294;42.666;23.350;2023-03-05T12:11:17;14.60;;;8.97;;
55423;SDS011;41294;42.666;23.350;2023-03-05T12:13:47;15.67;;;9.67;;
55423;SDS011;41294;42.666;23.350;2023-03-05T12:16:20;13.20;;;8.87;;
55423;SDS011;41294;42.666;23.350;2023-03-05T12:23:59;10.87;;;7.17;;
55423;SDS011;41294;42.666;23.350;2023-03-05T12:31:58;12.83;;;8.10;;
55423;SDS011;41294;42.666;23.350;2023-03-05T12:39:47;10.80;;;7.57;;
55423;SDS011;41294;42.666;23.350;2023-03-05T12:47:33;11.57;;;8.77;;
55423;SDS011;41294;42.666;23.350;2023-03-05T12:52:53;12.03;;;8.57;;
55423;SDS011;41294;42.666;23.350;2023-03-05T12:55:34;9.90;;;7.70;;
55423;SDS011;41294;42.666;23.350;2023-03-05T12:58:08;14.13;;;8.53;;
55423;SDS011;41294;42.666;23.350;2023-03-05T13:00:42;12.77;;;8.33;;
55423;SDS011;41294;42.666;23.350;2023-03-05T13:03:17;12.40;;;8.77;;
55423;SDS011;41294;42.666;23.350;2023-03-05T13:05:55;13.17;;;8.73;;
55423;SDS011;41294;42.666;23.350;2023-03-05T13:10:56;13.60;;;9.30;;
55423;SDS011;41294;42.666;23.350;2023-03-05T13:13:25;12.47;;;7.97;;
55423;SDS011;41294;42.666;23.350;2023-03-05T13:15:52;13.37;;;8.63;;
55423;SDS011;41294;42.666;23.350;2023-03-05T13:18:36;11.77;;;8.20;;
55423;SDS011;41294;42.666;23.350;2023-03-05T13:21:15;12.23;;;9.27;;
55423;SDS011;41294;42.666;23.350;2023-03-05T13:23:49;15.43;;;8.83;;
55423;SDS011;41294;42.666;23.350;2023-03-05T13:26:21;12.53;;;8.67;;
55423;SDS011;41294;42.666;23.350;2023-03-05T13:31:35;14.60;;;8.90;;
55423;SDS011;41294;42.666;23.350;2023-03-05T13:34:17;12.23;;;8.53;;
55423;SDS011;41294;42.666;23.350;2023-03-05T13:36:47;12.33;;;9.07;;
55423;SDS011;41294;42.666;23.350;2023-03-05T13:39:19;14.53;;;9.13;;
55423;SDS011;41294;42.666;23.350;2023-03-05T13:41:57;14.83;;;9.50;;
55423;SDS011;41294;42.666;23.350;2023-03-05T13:44:30;15.00;;;8.67;;
55423;SDS011;41294;42.666;23.350;2023-03-05T13:47:08;14.93;;;8.63;;
55423;SDS011;41294;42.666;23.350;2023-03-05T13:49:39;14.33;;;9.10;;
55423;SDS011;41294;42.666;23.350;2023-03-05T13:52:04;12.33;;;9.20;;
55423;SDS011;41294;42.666;23.350;2023-03-05T13:54:30;15.17;;;8.97;;
55423;SDS011;41294;42.666;23.350;2023-03-05T13:57:00;11.17;;;8.53;;
55423;SDS011;41294;42.666;23.350;2023-03-05T13:59:50;13.67;;;8.83;;
55423;SDS011;41294;42.666;23.350;2023-03-05T14:02:17;14.43;;;9.33;;
55423;SDS011;41294;42.666;23.350;2023-03-05T14:04:44;16.50;;;10.03;;
55423;SDS011;41294;42.666;23.350;2023-03-05T14:09:57;16.03;;;9.57;;
55423;SDS011;41294;42.666;23.350;2023-03-05T14:14:51;14.83;;;9.77;;
55423;SDS011;41294;42.666;23.350;2023-03-05T14:17:29;17.87;;;10.17;;
55423;SDS011;41294;42.666;23.350;2023-03-05T14:22:36;15.00;;;8.97;;
55423;SDS011;41294;42.666;23.350;2023-03-05T14:25:03;15.40;;;9.10;;
55423;SDS011;41294;42.666;23.350;2023-03-05T14:27:32;16.93;;;9.77;;
55423;SDS011;41294;42.666;23.350;2023-03-05T14:29:59;18.07;;;10.67;;
55423;SDS011;41294;42.666;23.350;2023-03-05T14:34:57;17.90;;;10.13;;
55423;SDS011;41294;42.666;23.350;2023-03-05T14:37:27;16.47;;;9.83;;
55423;SDS011;41294;42.666;23.350;2023-03-05T14:39:57;13.43;;;9.43;;
55423;SDS011;41294;42.666;23.350;2023-03-05T14:44:57;21.60;;;11.53;;
55423;SDS011;41294;42.666;23.350;2023-03-05T14:47:25;15.10;;;10.13;;
55423;SDS011;41294;42.666;23.350;2023-03-05T14:49:53;16.20;;;9.70;;
55423;SDS011;41294;42.666;23.350;2023-03-05T14:52:19;16.87;;;9.73;;
55423;SDS011;41294;42.666;23.350;2023-03-05T14:54:47;18.17;;;10.30;;
55423;SDS011;41294;42.666;23.350;2023-03-05T14:57:14;16.07;;;10.40;;
55423;SDS011;41294;42.666;23.350;2023-03-05T14:59:43;16.53;;;9.73;;
55423;SDS011;41294;42.666;23.350;2023-03-05T15:02:20;17.23;;;9.33;;
55423;SDS011;41294;42.666;23.350;2023-03-05T15:04:47;15.87;;;9.77;;
55423;SDS011;41294;42.666;23.350;2023-03-05T15:07:29;15.27;;;9.87;;
55423;SDS011;41294;42.666;23.350;2023-03-05T15:09:56;17.07;;;9.63;;
55423;SDS011;41294;42.666;23.350;2023-03-05T15:12:22;17.27;;;10.03;;
55423;SDS011;41294;42.666;23.350;2023-03-05T15:14:52;15.23;;;9.70;;
55423;SDS011;41294;42.666;23.350;2023-03-05T15:17:20;16.97;;;10.47;;
55423;SDS011;41294;42.666;23.350;2023-03-05T15:20:08;15.40;;;9.67;;
55423;SDS011;41294;42.666;23.350;2023-03-05T15:22:38;16.90;;;10.13;;
55423;SDS011;41294;42.666;23.350;2023-03-05T15:25:04;16.83;;;10.07;;
55423;SDS011;41294;42.666;23.350;2023-03-05T15:27:29;14.53;;;9.87;;
55423;SDS011;41294;42.666;23.350;2023-03-05T15:29:55;19.70;;;10.83;;
55423;SDS011;41294;42.666;23.350;2023-03-05T15:32:20;16.43;;;10.43;;
55423;SDS011;41294;42.666;23.350;2023-03-05T15:34:46;17.10;;;10.80;;
55423;SDS011;41294;42.666;23.350;2023-03-05T15:37:11;17.77;;;9.67;;
55423;SDS011;41294;42.666;23.350;2023-03-05T15:39:37;16.40;;;10.63;;
55423;SDS011;41294;42.666;23.350;2023-03-05T15:42:02;16.57;;;10.53;;
55423;SDS011;41294;42.666;23.350;2023-03-05T15:44:27;18.77;;;11.07;;
55423;SDS011;41294;42.666;23.350;2023-03-05T15:46:53;14.80;;;9.73;;
55423;SDS011;41294;42.666;23.350;2023-03-05T15:49:20;17.47;;;10.50;;
55423;SDS011;41294;42.666;23.350;2023-03-05T15:51:48;19.63;;;10.27;;
55423;SDS011;41294;42.666;23.350;2023-03-05T15:54:14;14.13;;;10.20;;
55423;SDS011;41294;42.666;23.350;2023-03-05T15:56:39;13.77;;;9.47;;
55423;SDS011;41294;42.666;23.350;2023-03-05T15:59:05;15.93;;;9.80;;
55423;SDS011;41294;42.666;23.350;2023-03-05T16:01:33;16.37;;;9.77;;
55423;SDS011;41294;42.666;23.350;2023-03-05T16:03:58;14.10;;;9.23;;
55423;SDS011;41294;42.666;23.350;2023-03-05T16:06:24;13.10;;;9.13;;
55423;SDS011;41294;42.666;23.350;2023-03-05T16:08:50;15.17;;;8.70;;
55423;SDS011;41294;42.666;23.350;2023-03-05T16:11:19;24.60;;;11.07;;
55423;SDS011;41294;42.666;23.350;2023-03-05T16:13:46;15.07;;;9.87;;